Livingston, New York
Current Conditions -  °F | °C
As of 9:13 AM on Friday 24 Oct 2014 (Local Time) from KPSF Reporting Station
Overcast Overcast  
Wind Chill: 36°   Ceiling: 900
Heat Index: 42°   Visibility: 10mi
Dew Point: 40°   Wind: 10mph
Humidity: 92%   Direction: 330°NNW
Pressure: 29.79"   Gusts: NA
Location:  42.14°N, 73.78°W
Report Text: KPSF 241313Z AUTO 33009KT 310V010 10SM OVC009 06/04 A2979 RMK AO2 RAB1259E13 CIG 007V012 P0000 T00560044
Loading
Personal Weather Stations






























Interactive Weather Map
Tropical Storm Tracking
New forecast layout! Learn more

10-Day Weather Forecast

Advertisements
Track Severe Weather on mobile